Maersk Peary — WHKM — position and weather

sailwx.info

Track history (hours):
 
Tides and Currents Weather Stations Pressure Air Temp Water Temp Dewpoint Dewpoint Depression Visibility Wind Speed Wind Dir Waves Ship Positions

Maersk Peary

Owner: Maersk Line, Limited, Norfolk, VA. More information available from US FCC via Universal Licensing System and Coast Guard Vessel Documentation Center.

Last reported at 2017-Aug-16 12:00 UTC. Time now 2017-Aug-16 21:50 UTC.
Position N 47°48' W 026°42'.

Length 180 m; draft 9.4 m.

Type: Ship. MMSI: 368236000.

Wind from 270 at 18 knots

Barometer 1009.0 mb
Air temperature 20.0 ° C
Visibility: greater than 5.4 NM
Dewpoint 14.9 ° C

Date/timePositionNaut miles runAvg speedWind from/ knotsBaromVisibWave heightAir tempDewpointWater temp
2017-Aug-16 12:00N 47°48' W 026°42'7813.0 270 / 181009.0 5.4 20.014.9
2017-Aug-16 06:00N 48°42' W 028°06'31012.9 250 / 261007.010.8 17.015.3
2017-Aug-15 06:00N 52°06' W 034°12'15412.9 130 / 181008.010.8 14.012.2
2017-Aug-14 18:00N 53°48' W 037°24'16013.3 140 / 121018.010.8 15.011.311.0
2017-Aug-14 06:00N 55°36' W 040°48'35014.6 230 / 111014.0 2.2 9.0 6.9
2017-Aug-13 06:00N 59°30' W 048°54'17014.1 230 / 81017.5 2.2 12.0 7.9
2017-Aug-12 18:00N 62°00' W 051°36'6214.5 290 / 91015.5 5.4 11.0 6.8 8.0
2017-Aug-12 13:44N 62°57' W 052°29'314.3
2017-Aug-12 13:30N 62°60' W 052°32'714.4
2017-Aug-12 12:59N 63°07' W 052°38'913.9
2017-Aug-12 12:20N 63°15' W 052°46'514.5
2017-Aug-12 11:59N 63°20' W 052°49'713.9
2017-Aug-12 11:31N 63°26' W 052°55'713.5
2017-Aug-12 11:01N 63°32' W 053°01'713.2
2017-Aug-12 10:30N 63°38' W 053°08'713.2
2017-Aug-12 10:01N 63°44' W 053°12'713.3
2017-Aug-12 09:30N 63°51' W 053°18'713.2
2017-Aug-12 09:01N 63°57' W 053°22'713.7
2017-Aug-12 08:30N 64°03' W 053°27'713.7
2017-Aug-12 08:00N 64°10' W 053°33'714.0
2017-Aug-12 07:30N 64°16' W 053°40'713.7
2017-Aug-12 07:00N 64°22' W 053°46'713.6
2017-Aug-12 06:30N 64°29' W 053°52'713.9
2017-Aug-12 06:00N 64°35' W 053°59'5328.3
2017-Aug-12 06:00N 64°30' W 053°54'1225.5 120 / 61013.0 5.4 8.0 5.8
2017-Aug-12 05:30N 64°42' W 054°04'814.1
2017-Aug-12 04:58N 64°49' W 054°10'1214.0
2017-Aug-12 04:06N 65°00' W 054°21'414.0
2017-Aug-12 03:51N 65°04' W 054°22'714.1
2017-Aug-12 03:23N 65°10' W 054°23'514.1
2017-Aug-12 03:00N 65°15' W 054°24'12313.7
2017-Aug-11 18:00N 67°18' W 054°54'17214.3 080 / 51013.0 5.4 11.0 6.8 6.0
2017-Aug-11 06:00N 70°06' W 056°36'17914.9 1014.0 5.4 9.0 6.9
2017-Aug-10 18:00N 72°30' W 062°06'8414.0 020 / 51010.027.0 12.0 7.9 7.0
2017-Aug-10 12:00N 73°42' W 064°36'9515.9 1011.0 1.1 5.0 2.5
2017-Aug-10 06:00N 75°06' W 067°24'   080 / 41012.0 5.4 5.0 2.5
Track history (hours):
 
Tides and Currents Weather Stations Pressure Air Temp Water Temp Dewpoint Dewpoint Depression Visibility Wind Speed Wind Dir Waves Ship Positions

Maersk Peary

Owner: Maersk Line, Limited, Norfolk, VA. More information available from US FCC via Universal Licensing System and Coast Guard Vessel Documentation Center.

Last reported at 2017-Aug-16 12:00 UTC. Time now 2017-Aug-16 21:50 UTC.
Position N 47°48' W 026°42'.

Length 180 m; draft 9.4 m.

Type: Ship. MMSI: 368236000.

Wind from 270 at 18 knots

Barometer 1009.0 mb
Air temperature 20.0 ° C
Visibility: greater than 5.4 NM
Dewpoint 14.9 ° C

Date/timePositionNaut miles runAvg speedWind from/ knotsBaromVisibWave heightAir tempDewpointWater temp
2017-Aug-16 12:00N 47°48' W 026°42'7813.0 270 / 181009.0 5.4 20.014.9
2017-Aug-16 06:00N 48°42' W 028°06'31012.9 250 / 261007.010.8 17.015.3
2017-Aug-15 06:00N 52°06' W 034°12'15412.9 130 / 181008.010.8 14.012.2
2017-Aug-14 18:00N 53°48' W 037°24'16013.3 140 / 121018.010.8 15.011.311.0
2017-Aug-14 06:00N 55°36' W 040°48'35014.6 230 / 111014.0 2.2 9.0 6.9
2017-Aug-13 06:00N 59°30' W 048°54'17014.1 230 / 81017.5 2.2 12.0 7.9
2017-Aug-12 18:00N 62°00' W 051°36'6214.5 290 / 91015.5 5.4 11.0 6.8 8.0
2017-Aug-12 13:44N 62°57' W 052°29'314.3
2017-Aug-12 13:30N 62°60' W 052°32'714.4
2017-Aug-12 12:59N 63°07' W 052°38'913.9
2017-Aug-12 12:20N 63°15' W 052°46'514.5
2017-Aug-12 11:59N 63°20' W 052°49'713.9
2017-Aug-12 11:31N 63°26' W 052°55'713.5
2017-Aug-12 11:01N 63°32' W 053°01'713.2
2017-Aug-12 10:30N 63°38' W 053°08'713.2
2017-Aug-12 10:01N 63°44' W 053°12'713.3
2017-Aug-12 09:30N 63°51' W 053°18'713.2
2017-Aug-12 09:01N 63°57' W 053°22'713.7
2017-Aug-12 08:30N 64°03' W 053°27'713.7
2017-Aug-12 08:00N 64°10' W 053°33'714.0
2017-Aug-12 07:30N 64°16' W 053°40'713.7
2017-Aug-12 07:00N 64°22' W 053°46'713.6
2017-Aug-12 06:30N 64°29' W 053°52'713.9
2017-Aug-12 06:00N 64°35' W 053°59'5328.3
2017-Aug-12 06:00N 64°30' W 053°54'1225.5 120 / 61013.0 5.4 8.0 5.8
2017-Aug-12 05:30N 64°42' W 054°04'814.1
2017-Aug-12 04:58N 64°49' W 054°10'1214.0
2017-Aug-12 04:06N 65°00' W 054°21'414.0
2017-Aug-12 03:51N 65°04' W 054°22'714.1
2017-Aug-12 03:23N 65°10' W 054°23'514.1
2017-Aug-12 03:00N 65°15' W 054°24'12313.7
2017-Aug-11 18:00N 67°18' W 054°54'17214.3 080 / 51013.0 5.4 11.0 6.8 6.0
2017-Aug-11 06:00N 70°06' W 056°36'17914.9 1014.0 5.4 9.0 6.9
2017-Aug-10 18:00N 72°30' W 062°06'8414.0 020 / 51010.027.0 12.0 7.9 7.0
2017-Aug-10 12:00N 73°42' W 064°36'9515.9 1011.0 1.1 5.0 2.5
2017-Aug-10 06:00N 75°06' W 067°24'   080 / 41012.0 5.4 5.0 2.5

Dump ship's entire track history